Time;durP1;ratioP1;P1;durP2;ratioP2;P2;SDS_P1;SDS_P2;PMS_P1;PMS_P2;Temp;Humidity;BMP_temperature;BMP_pressure;BME280_temperature;BME280_humidity;BME280_pressure;Samples;Min_cycle;Max_cycle;Signal;HPM_P1;HPM_P2
2022/04/27 00:00:15;;;;;;;;;;;23.50;51.90;;;;;;691714;28;1443;-82
2022/04/27 00:00:36;;;;;;;;;;;23.50;51.90;;;;;;688307;28;1263;-81
2022/04/27 00:00:57;;;;;;;;;;;23.50;51.90;;;;;;689324;28;1354;-81
2022/04/27 00:01:18;;;;;;;;;;;23.50;51.90;;;;;;691541;28;834;-81
2022/04/27 00:01:38;;;;;;;;;;;23.40;51.80;;;;;;691564;28;938;-82
2022/04/27 00:02:00;;;;;;;;;;;23.50;51.90;;;;;;691402;28;1394;-81
2022/04/27 00:02:20;;;;;;;;;;;23.50;51.80;;;;;;691320;28;1442;-81
2022/04/27 00:02:41;;;;;;;;;;;23.50;51.80;;;;;;691863;28;1558;-82
2022/04/27 00:03:03;;;;;;;;;;;23.50;52.90;;;;;;694392;28;881;-81
2022/04/27 00:03:24;;;;;;;;;;;23.50;51.80;;;;;;694134;28;1059;-81
2022/04/27 00:03:44;;;;;;;;;;;23.50;51.80;;;;;;693917;28;1137;-81
2022/04/27 00:04:05;;;;;;;;;;;23.50;51.70;;;;;;694823;28;862;-81
2022/04/27 00:04:26;;;;;;;;;;;23.50;51.80;;;;;;697109;28;806;-81
2022/04/27 00:04:49;;;;;;;;;;;23.50;51.70;;;;;;697142;28;810;-81
2022/04/27 00:05:09;;;;;;;;;;;23.50;51.70;;;;;;697260;28;834;-80
2022/04/27 00:05:32;;;;;;;;;;;23.50;51.80;;;;;;697192;28;914;-81
2022/04/27 00:05:52;;;;;;;;;;;23.50;51.70;;;;;;697209;28;830;-81
2022/04/27 00:06:13;;;;;;;;;;;23.50;51.70;;;;;;696903;28;1225;-81
2022/04/27 00:06:34;;;;;;;;;;;23.50;51.60;;;;;;697093;28;1014;-81
2022/04/27 00:06:54;;;;;;;;;;;23.50;51.60;;;;;;696896;28;858;-81
2022/04/27 00:07:15;;;;;;;;;;;23.50;51.60;;;;;;696989;28;853;-82
2022/04/27 00:07:35;;;;;;;;;;;23.50;51.60;;;;;;697083;28;857;-81
2022/04/27 00:07:56;;;;;;;;;;;23.50;51.60;;;;;;697001;28;869;-81
2022/04/27 00:08:17;;;;;;;;;;;23.50;51.60;;;;;;697157;28;854;-81
2022/04/27 00:08:38;;;;;;;;;;;23.50;51.60;;;;;;697248;28;822;-81
2022/04/27 00:08:58;;;;;;;;;;;23.50;51.50;;;;;;697210;28;791;-81
2022/04/27 00:09:19;;;;;;;;;;;23.50;51.60;;;;;;697043;28;1910;-81
2022/04/27 00:09:39;;;;;;;;;;;23.50;51.60;;;;;;697185;28;795;-82
2022/04/27 00:10:00;;;;;;;;;;;23.50;51.50;;;;;;697324;28;904;-81
2022/04/27 00:10:21;;;;;;;;;;;23.50;51.50;;;;;;697171;28;1016;-81
2022/04/27 00:10:41;;;;;;;;;;;23.50;51.50;;;;;;697180;28;890;-82
2022/04/27 00:11:02;;;;;;;;;;;23.50;51.50;;;;;;697340;28;510;-81
2022/04/27 00:11:22;;;;;;;;;;;23.50;51.40;;;;;;697216;28;849;-82
2022/04/27 00:11:43;;;;;;;;;;;23.50;51.50;;;;;;697058;28;890;-81
2022/04/27 00:12:04;;;;;;;;;;;23.50;51.40;;;;;;697179;28;1432;-81
2022/04/27 00:12:25;;;;;;;;;;;23.50;51.40;;;;;;697198;28;859;-83
2022/04/27 00:12:47;;;;;;;;;;;23.50;51.40;;;;;;697121;28;854;-81
2022/04/27 00:13:13;;;;;;;;;;;23.50;51.40;;;;;;697206;28;842;-81
2022/04/27 00:13:33;;;;;;;;;;;23.50;51.40;;;;;;697045;28;909;-82
2022/04/27 00:13:54;;;;;;;;;;;23.60;51.40;;;;;;696428;28;1445;-81
2022/04/27 00:14:15;;;;;;;;;;;23.50;51.30;;;;;;696955;28;857;-81
2022/04/27 00:14:35;;;;;;;;;;;23.50;51.40;;;;;;694325;28;890;-81
2022/04/27 00:14:56;;;;;;;;;;;23.50;51.30;;;;;;694142;28;920;-82
2022/04/27 00:15:20;;;;;;;;;;;23.60;51.30;;;;;;694274;28;937;-84
2022/04/27 00:15:41;;;;;;;;;;;23.50;51.30;;;;;;694038;28;978;-82
2022/04/27 00:16:01;;;;;;;;;;;23.50;51.30;;;;;;694358;28;801;-82
2022/04/27 00:16:22;;;;;;;;;;;23.50;51.30;;;;;;695072;28;865;-82
2022/04/27 00:16:43;;;;;;;;;;;23.50;51.50;;;;;;697138;28;971;-82
2022/04/27 00:17:03;;;;;;;;;;;23.50;51.50;;;;;;697259;28;857;-82
2022/04/27 00:17:24;;;;;;;;;;;23.50;51.50;;;;;;697102;28;852;-82
2022/04/27 00:17:44;;;;;;;;;;;23.50;51.60;;;;;;697055;28;913;-83
2022/04/27 00:18:05;;;;;;;;;;;23.50;51.60;;;;;;693863;28;961;-82
2022/04/27 00:18:25;;;;;;;;;;;23.50;51.70;;;;;;694152;28;862;-82
2022/04/27 00:18:46;;;;;;;;;;;23.50;51.70;;;;;;694153;28;798;-82
2022/04/27 00:19:06;;;;;;;;;;;23.50;51.80;;;;;;694290;28;862;-82
2022/04/27 00:19:27;;;;;;;;;;;23.50;51.70;;;;;;694153;28;798;-82
2022/04/27 00:19:49;;;;;;;;;;;23.50;51.80;;;;;;694379;28;934;-81
2022/04/27 00:20:10;;;;;;;;;;;23.50;51.80;;;;;;697110;28;1301;-83
2022/04/27 00:20:30;;;;;;;;;;;23.50;51.70;;;;;;697199;28;846;-82
2022/04/27 00:20:51;;;;;;;;;;;23.50;51.80;;;;;;694206;28;802;-82
2022/04/27 00:21:11;;;;;;;;;;;23.50;51.80;;;;;;694205;28;815;-82
2022/04/27 00:21:33;;;;;;;;;;;23.50;51.80;;;;;;691502;28;1517;-82
2022/04/27 00:21:54;;;;;;;;;;;23.50;51.80;;;;;;691387;28;800;-83
2022/04/27 00:22:15;;;;;;;;;;;23.50;51.80;;;;;;691477;28;885;-82
2022/04/27 00:22:36;;;;;;;;;;;23.50;51.80;;;;;;692038;28;886;-81
2022/04/27 00:22:56;;;;;;;;;;;23.50;51.80;;;;;;694121;28;941;-82
2022/04/27 00:23:18;;;;;;;;;;;23.50;51.80;;;;;;694855;28;810;-81
2022/04/27 00:23:39;;;;;;;;;;;23.50;51.80;;;;;;697198;28;849;-83
2022/04/27 00:23:59;;;;;;;;;;;23.50;51.80;;;;;;693946;28;1265;-81
2022/04/27 00:24:20;;;;;;;;;;;23.50;51.90;;;;;;691328;28;1372;-82
2022/04/27 00:24:40;;;;;;;;;;;23.50;51.80;;;;;;691506;28;842;-81
2022/04/27 00:25:02;;;;;;;;;;;23.50;51.90;;;;;;691374;28;1413;-81
2022/04/27 00:25:23;;;;;;;;;;;23.50;51.90;;;;;;691449;28;799;-81
2022/04/27 00:25:44;;;;;;;;;;;23.50;51.90;;;;;;691416;28;858;-81
2022/04/27 00:26:05;;;;;;;;;;;23.50;51.80;;;;;;692074;28;884;-82
2022/04/27 00:26:26;;;;;;;;;;;23.50;52.00;;;;;;694176;28;869;-81
2022/04/27 00:26:46;;;;;;;;;;;23.50;52.00;;;;;;694738;28;826;-82
2022/04/27 00:27:07;;;;;;;;;;;23.40;51.90;;;;;;697195;28;939;-81
2022/04/27 00:27:28;;;;;;;;;;;23.40;51.80;;;;;;697151;28;925;-82
2022/04/27 00:27:48;;;;;;;;;;;23.40;51.90;;;;;;697127;28;1096;-81
2022/04/27 00:28:09;;;;;;;;;;;23.50;52.00;;;;;;697154;28;810;-81
2022/04/27 00:28:29;;;;;;;;;;;23.50;52.00;;;;;;697160;28;801;-82
2022/04/27 00:28:50;;;;;;;;;;;23.50;52.00;;;;;;697101;28;960;-81
2022/04/27 00:29:11;;;;;;;;;;;23.40;52.00;;;;;;696333;28;918;-81
2022/04/27 00:29:31;;;;;;;;;;;23.50;52.00;;;;;;697133;28;1974;-82
2022/04/27 00:29:52;;;;;;;;;;;23.40;52.00;;;;;;697129;28;813;-81
2022/04/27 00:30:12;;;;;;;;;;;23.40;52.00;;;;;;697150;28;893;-81
2022/04/27 00:30:33;;;;;;;;;;;23.40;52.00;;;;;;697164;28;889;-81
2022/04/27 00:30:53;;;;;;;;;;;23.40;52.00;;;;;;696940;28;1468;-81
2022/04/27 00:31:14;;;;;;;;;;;23.40;52.00;;;;;;697195;28;948;-81
2022/04/27 00:31:36;;;;;;;;;;;23.40;52.00;;;;;;697266;28;857;-81
2022/04/27 00:31:56;;;;;;;;;;;23.40;52.10;;;;;;697095;28;830;-82
2022/04/27 00:32:17;;;;;;;;;;;23.40;53.20;;;;;;696964;28;930;-81
2022/04/27 00:32:37;;;;;;;;;;;23.40;52.00;;;;;;696851;28;1375;-81
2022/04/27 00:32:58;;;;;;;;;;;23.40;52.00;;;;;;696889;28;826;-79
2022/04/27 00:33:18;;;;;;;;;;;23.40;52.00;;;;;;696434;28;878;-79
2022/04/27 00:33:39;;;;;;;;;;;23.40;52.20;;;;;;696831;28;1083;-82
2022/04/27 00:34:00;;;;;;;;;;;23.40;52.00;;;;;;696966;28;810;-83
2022/04/27 00:34:21;;;;;;;;;;;23.40;52.10;;;;;;696906;28;853;-82
2022/04/27 00:34:41;;;;;;;;;;;23.40;52.10;;;;;;697057;28;845;-82
2022/04/27 00:35:03;;;;;;;;;;;23.40;52.10;;;;;;697193;28;925;-81
2022/04/27 00:35:23;;;;;;;;;;;23.40;52.10;;;;;;696435;28;1266;-82
2022/04/27 00:35:44;;;;;;;;;;;23.40;52.10;;;;;;696989;28;798;-82
2022/04/27 00:36:04;;;;;;;;;;;23.40;52.10;;;;;;696945;28;868;-82
2022/04/27 00:36:25;;;;;;;;;;;23.40;52.20;;;;;;696433;28;1070;-82
2022/04/27 00:36:45;;;;;;;;;;;23.40;52.10;;;;;;696849;28;1449;-82
2022/04/27 00:37:06;;;;;;;;;;;23.40;52.20;;;;;;696755;28;794;-82
2022/04/27 00:37:27;;;;;;;;;;;23.40;52.10;;;;;;694147;28;770;-82
2022/04/27 00:37:47;;;;;;;;;;;23.40;52.10;;;;;;694164;28;800;-82
2022/04/27 00:38:08;;;;;;;;;;;23.40;53.20;;;;;;691102;28;957;-82
2022/04/27 00:38:28;;;;;;;;;;;23.40;52.10;;;;;;691406;28;905;-83
2022/04/27 00:38:49;;;;;;;;;;;23.40;52.10;;;;;;691352;28;934;-83
2022/04/27 00:39:09;;;;;;;;;;;23.40;52.10;;;;;;691509;28;799;-82
2022/04/27 00:39:30;;;;;;;;;;;23.40;52.10;;;;;;691544;28;842;-82
2022/04/27 00:39:50;;;;;;;;;;;23.40;52.10;;;;;;691894;28;990;-82
2022/04/27 00:40:11;;;;;;;;;;;23.40;52.10;;;;;;697044;28;842;-82
2022/04/27 00:40:32;;;;;;;;;;;23.40;52.10;;;;;;696451;28;918;-82
2022/04/27 00:40:54;;;;;;;;;;;23.40;52.10;;;;;;697069;28;874;-83
2022/04/27 00:41:14;;;;;;;;;;;23.40;52.10;;;;;;697062;28;991;-83
2022/04/27 00:41:35;;;;;;;;;;;23.40;52.10;;;;;;697181;28;912;-82
2022/04/27 00:42:02;;;;;;;;;;;23.40;52.10;;;;;;697163;28;893;-83
2022/04/27 00:42:22;;;;;;;;;;;23.40;52.20;;;;;;697081;28;779;-82
2022/04/27 00:42:43;;;;;;;;;;;23.40;52.10;;;;;;697129;28;802;-82
2022/04/27 00:43:04;;;;;;;;;;;23.40;52.10;;;;;;697073;28;945;-83
2022/04/27 00:43:34;;;;;;;;;;;23.40;52.10;;;;;;697148;28;805;-83
2022/04/27 00:43:55;;;;;;;;;;;23.40;52.20;;;;;;697110;28;814;-82
2022/04/27 00:44:16;;;;;;;;;;;23.40;52.10;;;;;;697034;28;909;-83
2022/04/27 00:44:37;;;;;;;;;;;23.40;52.10;;;;;;694122;28;1427;-82
2022/04/27 00:44:57;;;;;;;;;;;23.40;52.10;;;;;;694152;28;843;-82
2022/04/27 00:45:18;;;;;;;;;;;23.40;52.10;;;;;;694113;28;775;-82
2022/04/27 00:45:38;;;;;;;;;;;23.40;52.20;;;;;;694283;28;901;-83
2022/04/27 00:46:01;;;;;;;;;;;23.40;52.20;;;;;;694211;28;831;-82
2022/04/27 00:46:22;;;;;;;;;;;23.40;52.10;;;;;;694699;28;906;-82
2022/04/27 00:46:42;;;;;;;;;;;23.40;52.10;;;;;;696836;28;1196;-80
2022/04/27 00:47:03;;;;;;;;;;;23.40;52.10;;;;;;697002;28;945;-81
2022/04/27 00:47:23;;;;;;;;;;;23.40;52.10;;;;;;696955;28;778;-82
2022/04/27 00:47:44;;;;;;;;;;;23.40;52.10;;;;;;696996;28;876;-79
2022/04/27 00:48:06;;;;;;;;;;;23.40;52.20;;;;;;697621;28;803;-81
2022/04/27 00:48:26;;;;;;;;;;;23.40;52.10;;;;;;697404;28;941;-81
2022/04/27 00:48:47;;;;;;;;;;;23.40;52.10;;;;;;697517;28;806;-81
2022/04/27 00:49:08;;;;;;;;;;;23.40;52.10;;;;;;697806;28;798;-82
2022/04/27 00:49:28;;;;;;;;;;;23.40;52.10;;;;;;697435;28;1895;-81
2022/04/27 00:49:51;;;;;;;;;;;23.40;52.10;;;;;;697884;28;858;-82
2022/04/27 00:50:12;;;;;;;;;;;23.40;52.10;;;;;;697681;28;841;-81
2022/04/27 00:50:34;;;;;;;;;;;23.40;52.10;;;;;;697840;28;1044;-82
2022/04/27 00:50:56;;;;;;;;;;;23.40;52.10;;;;;;697361;28;833;-81
2022/04/27 00:51:17;;;;;;;;;;;23.40;52.20;;;;;;697013;28;810;-81
2022/04/27 00:51:38;;;;;;;;;;;23.40;52.10;;;;;;697096;28;803;-82
2022/04/27 00:51:58;;;;;;;;;;;23.40;52.20;;;;;;697058;28;901;-82
2022/04/27 00:52:20;;;;;;;;;;;23.40;52.30;;;;;;697013;28;854;-82
2022/04/27 00:52:40;;;;;;;;;;;23.40;52.10;;;;;;697030;28;906;-81
2022/04/27 00:53:01;;;;;;;;;;;23.40;52.10;;;;;;697150;28;878;-81
2022/04/27 00:53:22;;;;;;;;;;;23.40;52.10;;;;;;697074;28;774;-82
2022/04/27 00:53:43;;;;;;;;;;;23.40;52.10;;;;;;693984;28;1705;-82
2022/04/27 00:54:04;;;;;;;;;;;23.40;53.20;;;;;;694243;28;853;-82
2022/04/27 00:54:24;;;;;;;;;;;23.40;52.20;;;;;;693696;28;1328;-81
2022/04/27 00:54:48;;;;;;;;;;;23.40;52.10;;;;;;694130;28;484;-82
2022/04/27 00:55:09;;;;;;;;;;;23.40;52.10;;;;;;694335;28;873;-83
2022/04/27 00:55:30;;;;;;;;;;;23.40;52.10;;;;;;695043;28;803;-82
2022/04/27 00:55:52;;;;;;;;;;;23.40;52.10;;;;;;697014;28;818;-82
2022/04/27 00:56:13;;;;;;;;;;;23.40;52.10;;;;;;696950;28;973;-82
2022/04/27 00:56:34;;;;;;;;;;;23.40;52.10;;;;;;697160;28;803;-82
2022/04/27 00:56:54;;;;;;;;;;;23.40;52.10;;;;;;697090;28;898;-82
2022/04/27 00:57:15;;;;;;;;;;;23.40;52.10;;;;;;697043;28;854;-82
2022/04/27 00:57:36;;;;;;;;;;;23.40;52.30;;;;;;697097;28;893;-82
2022/04/27 00:57:59;;;;;;;;;;;23.40;52.10;;;;;;696970;28;810;-81
2022/04/27 00:58:22;;;;;;;;;;;23.30;52.10;;;;;;696920;28;914;-82
2022/04/27 00:58:44;;;;;;;;;;;23.40;52.10;;;;;;697060;28;886;-82
2022/04/27 00:59:04;;;;;;;;;;;23.30;52.10;;;;;;697146;28;837;-82
2022/04/27 00:59:25;;;;;;;;;;;23.30;52.10;;;;;;696955;28;535;-82
2022/04/27 00:59:46;;;;;;;;;;;23.40;52.10;;;;;;697062;28;814;-81
2022/04/27 01:00:10;;;;;;;;;;;23.40;52.20;;;;;;697122;28;885;-82
2022/04/27 01:00:30;;;;;;;;;;;23.40;52.20;;;;;;697131;28;877;-83
2022/04/27 01:00:51;;;;;;;;;;;23.40;52.10;;;;;;697042;28;917;-83
2022/04/27 01:01:12;;;;;;;;;;;23.30;52.10;;;;;;697031;28;863;-82
2022/04/27 01:01:33;;;;;;;;;;;23.30;52.10;;;;;;697088;28;857;-82
2022/04/27 01:01:53;;;;;;;;;;;23.30;52.10;;;;;;697022;28;810;-82
2022/04/27 01:02:15;;;;;;;;;;;23.30;52.00;;;;;;697001;28;862;-82
2022/04/27 01:02:35;;;;;;;;;;;23.40;52.10;;;;;;697055;28;874;-82
2022/04/27 01:02:56;;;;;;;;;;;23.30;52.10;;;;;;696998;28;866;-82
2022/04/27 01:03:17;;;;;;;;;;;23.40;52.10;;;;;;697066;28;790;-82
2022/04/27 01:03:38;;;;;;;;;;;23.30;52.00;;;;;;693928;28;1016;-82
2022/04/27 01:03:59;;;;;;;;;;;23.30;52.10;;;;;;693941;28;839;-83
2022/04/27 01:04:19;;;;;;;;;;;23.30;52.00;;;;;;694136;28;795;-81
2022/04/27 01:04:40;;;;;;;;;;;23.30;52.10;;;;;;693894;28;958;-83
2022/04/27 01:05:00;;;;;;;;;;;23.30;52.00;;;;;;694151;28;796;-80
2022/04/27 01:05:21;;;;;;;;;;;23.30;52.10;;;;;;694363;28;886;-79
2022/04/27 01:05:42;;;;;;;;;;;23.30;52.20;;;;;;696987;28;867;-81
2022/04/27 01:06:04;;;;;;;;;;;23.30;52.10;;;;;;697051;28;866;-80
2022/04/27 01:06:24;;;;;;;;;;;23.30;52.10;;;;;;697067;28;786;-81
2022/04/27 01:06:45;;;;;;;;;;;23.30;52.10;;;;;;696950;28;850;-81
2022/04/27 01:07:06;;;;;;;;;;;23.30;52.10;;;;;;697125;28;901;-81
2022/04/27 01:07:28;;;;;;;;;;;23.30;52.10;;;;;;697023;28;885;-81
2022/04/27 01:07:49;;;;;;;;;;;23.30;52.10;;;;;;696953;28;966;-80
2022/04/27 01:08:10;;;;;;;;;;;23.30;52.00;;;;;;696996;28;822;-81
2022/04/27 01:08:31;;;;;;;;;;;23.30;52.10;;;;;;694022;28;1231;-81
2022/04/27 01:08:52;;;;;;;;;;;23.30;52.10;;;;;;694109;28;790;-81
2022/04/27 01:09:12;;;;;;;;;;;23.30;52.10;;;;;;694143;28;511;-80
2022/04/27 01:09:33;;;;;;;;;;;23.30;52.00;;;;;;694033;28;1902;-81
2022/04/27 01:09:55;;;;;;;;;;;23.30;52.10;;;;;;693898;28;779;-81
2022/04/27 01:10:15;;;;;;;;;;;23.30;52.10;;;;;;694255;28;904;-81
2022/04/27 01:10:36;;;;;;;;;;;23.30;52.10;;;;;;696934;28;893;-81
2022/04/27 01:10:59;;;;;;;;;;;23.50;52.20;;;;;;697005;28;878;-81
2022/04/27 01:11:19;;;;;;;;;;;23.30;52.10;;;;;;697097;28;873;-81
2022/04/27 01:11:40;;;;;;;;;;;23.30;52.10;;;;;;697006;28;921;-81
2022/04/27 01:12:01;;;;;;;;;;;23.30;52.10;;;;;;697047;28;842;-80
2022/04/27 01:12:22;;;;;;;;;;;23.30;52.10;;;;;;696948;28;810;-81
2022/04/27 01:12:43;;;;;;;;;;;23.30;52.10;;;;;;696680;28;1398;-80
2022/04/27 01:13:05;;;;;;;;;;;23.30;52.10;;;;;;696861;28;865;-80
2022/04/27 01:13:27;;;;;;;;;;;23.30;52.10;;;;;;696819;28;811;-80
2022/04/27 01:13:47;;;;;;;;;;;23.30;52.10;;;;;;696735;28;830;-81
2022/04/27 01:14:08;;;;;;;;;;;23.30;52.00;;;;;;696939;28;810;-81
2022/04/27 01:14:28;;;;;;;;;;;23.30;52.00;;;;;;696791;28;835;-82
2022/04/27 01:14:49;;;;;;;;;;;23.30;52.10;;;;;;696947;28;822;-81
2022/04/27 01:15:09;;;;;;;;;;;23.30;52.10;;;;;;693662;28;1371;-82
2022/04/27 01:15:31;;;;;;;;;;;23.30;52.10;;;;;;694180;28;924;-83
2022/04/27 01:15:52;;;;;;;;;;;23.30;52.00;;;;;;693984;28;811;-80
2022/04/27 01:16:13;;;;;;;;;;;23.30;52.00;;;;;;693972;28;1326;-80
2022/04/27 01:16:33;;;;;;;;;;;23.30;52.10;;;;;;694087;28;850;-80
2022/04/27 01:16:54;;;;;;;;;;;23.30;52.10;;;;;;694630;28;909;-80
2022/04/27 01:17:15;;;;;;;;;;;23.30;52.10;;;;;;696996;28;841;-81
2022/04/27 01:17:36;;;;;;;;;;;23.30;52.10;;;;;;697089;28;771;-80
2022/04/27 01:17:57;;;;;;;;;;;23.30;52.10;;;;;;696933;28;893;-81
2022/04/27 01:18:18;;;;;;;;;;;23.30;52.10;;;;;;697033;28;806;-80
2022/04/27 01:18:38;;;;;;;;;;;23.30;52.00;;;;;;696946;28;917;-81
2022/04/27 01:19:00;;;;;;;;;;;23.30;52.00;;;;;;696866;28;863;-81
2022/04/27 01:19:23;;;;;;;;;;;23.30;52.10;;;;;;696961;28;861;-81
2022/04/27 01:19:43;;;;;;;;;;;23.30;52.10;;;;;;696882;28;802;-82
2022/04/27 01:20:04;;;;;;;;;;;23.30;52.10;;;;;;697221;28;952;-81
2022/04/27 01:20:29;;;;;;;;;;;23.30;52.10;;;;;;696954;28;798;-81
2022/04/27 01:20:51;;;;;;;;;;;23.30;52.10;;;;;;696884;28;921;-81
2022/04/27 01:21:12;;;;;;;;;;;23.30;52.10;;;;;;696993;28;889;-81
2022/04/27 01:21:33;;;;;;;;;;;23.30;52.10;;;;;;697078;28;766;-81
2022/04/27 01:21:54;;;;;;;;;;;23.30;52.00;;;;;;696943;28;885;-82
2022/04/27 01:22:15;;;;;;;;;;;23.30;52.10;;;;;;696947;28;883;-81
2022/04/27 01:22:35;;;;;;;;;;;23.30;52.10;;;;;;697055;28;952;-81
2022/04/27 01:22:56;;;;;;;;;;;23.30;53.10;;;;;;696873;28;868;-80
2022/04/27 01:23:17;;;;;;;;;;;23.30;52.10;;;;;;697088;28;782;-81
2022/04/27 01:23:39;;;;;;;;;;;23.30;52.10;;;;;;697107;28;833;-81
2022/04/27 01:24:00;;;;;;;;;;;23.30;52.10;;;;;;696644;28;1322;-82
2022/04/27 01:24:22;;;;;;;;;;;23.30;52.10;;;;;;696928;28;877;-80
2022/04/27 01:24:44;;;;;;;;;;;23.30;52.10;;;;;;697002;28;787;-79
2022/04/27 01:25:06;;;;;;;;;;;23.40;52.10;;;;;;696862;28;1040;-81
2022/04/27 01:25:26;;;;;;;;;;;23.30;52.10;;;;;;696970;28;827;-81
2022/04/27 01:25:48;;;;;;;;;;;23.40;52.10;;;;;;696896;28;826;-81
2022/04/27 01:26:09;;;;;;;;;;;23.30;52.10;;;;;;697124;28;814;-82
2022/04/27 01:26:29;;;;;;;;;;;23.30;52.10;;;;;;696995;28;837;-82
2022/04/27 01:26:51;;;;;;;;;;;23.40;52.20;;;;;;696265;28;894;-81
2022/04/27 01:27:11;;;;;;;;;;;23.30;52.10;;;;;;696764;28;802;-82
2022/04/27 01:27:32;;;;;;;;;;;23.30;52.10;;;;;;696952;28;893;-82
2022/04/27 01:27:52;;;;;;;;;;;23.30;52.00;;;;;;696706;28;838;-81
2022/04/27 01:28:14;;;;;;;;;;;23.40;52.10;;;;;;696787;28;878;-81
2022/04/27 01:28:36;;;;;;;;;;;23.40;52.10;;;;;;696918;28;861;-81
2022/04/27 01:28:59;;;;;;;;;;;23.40;52.10;;;;;;696969;28;881;-81
2022/04/27 01:29:22;;;;;;;;;;;23.40;52.20;;;;;;696866;28;1909;-80
2022/04/27 01:29:42;;;;;;;;;;;23.40;52.20;;;;;;696907;28;1177;-81
2022/04/27 01:30:04;;;;;;;;;;;23.40;52.10;;;;;;697066;28;771;-81
2022/04/27 01:30:25;;;;;;;;;;;23.40;52.10;;;;;;696916;28;862;-81
2022/04/27 01:30:46;;;;;;;;;;;23.40;53.20;;;;;;696994;28;798;-81
2022/04/27 01:31:10;;;;;;;;;;;23.40;52.10;;;;;;697005;28;929;-81
2022/04/27 01:31:31;;;;;;;;;;;23.40;52.10;;;;;;694052;28;1452;-81
2022/04/27 01:31:53;;;;;;;;;;;23.40;52.00;;;;;;691511;28;1151;-81
2022/04/27 01:32:15;;;;;;;;;;;23.40;52.10;;;;;;691343;28;854;-82
2022/04/27 01:32:36;;;;;;;;;;;23.40;52.00;;;;;;691382;28;802;-81
2022/04/27 01:32:56;;;;;;;;;;;23.40;52.00;;;;;;691280;28;993;-81
2022/04/27 01:33:17;;;;;;;;;;;23.40;51.90;;;;;;691915;28;942;-81
2022/04/27 01:33:38;;;;;;;;;;;23.40;51.90;;;;;;694730;28;1016;-81
2022/04/27 01:33:59;;;;;;;;;;;23.40;51.80;;;;;;696944;28;803;-81
2022/04/27 01:34:20;;;;;;;;;;;23.40;51.90;;;;;;696902;28;914;-82
2022/04/27 01:34:40;;;;;;;;;;;23.50;51.90;;;;;;696806;28;798;-81
2022/04/27 01:35:01;;;;;;;;;;;23.40;51.80;;;;;;696932;28;878;-81
2022/04/27 01:35:21;;;;;;;;;;;23.40;51.80;;;;;;696996;28;870;-81
2022/04/27 01:35:42;;;;;;;;;;;23.40;51.80;;;;;;696981;28;952;-81
2022/04/27 01:36:03;;;;;;;;;;;23.40;51.70;;;;;;696657;28;1239;-81
2022/04/27 01:36:24;;;;;;;;;;;23.40;51.70;;;;;;696743;28;881;-81
2022/04/27 01:36:44;;;;;;;;;;;23.50;51.80;;;;;;696770;28;916;-82
2022/04/27 01:38:03;;;;;;;;;;;23.40;51.70;;;;;;696682;28;1395;-81
2022/04/27 01:38:25;;;;;;;;;;;23.50;51.80;;;;;;696927;28;834;-81
2022/04/27 01:38:45;;;;;;;;;;;23.50;51.70;;;;;;696897;28;890;-81
2022/04/27 01:39:07;;;;;;;;;;;23.50;51.60;;;;;;696980;28;846;-81
2022/04/27 01:39:27;;;;;;;;;;;23.50;51.60;;;;;;696993;28;791;-81
2022/04/27 01:39:48;;;;;;;;;;;23.50;51.60;;;;;;696921;28;1060;-81
2022/04/27 01:40:09;;;;;;;;;;;23.50;51.60;;;;;;696990;28;895;-80
2022/04/27 01:40:30;;;;;;;;;;;23.50;51.60;;;;;;696908;28;786;-81
2022/04/27 01:40:55;;;;;;;;;;;23.50;51.70;;;;;;696964;28;803;-81
2022/04/27 01:41:15;;;;;;;;;;;23.50;51.60;;;;;;696128;28;921;-81
2022/04/27 01:41:37;;;;;;;;;;;23.50;51.50;;;;;;696958;28;1135;-81
2022/04/27 01:41:59;;;;;;;;;;;23.50;51.50;;;;;;696931;28;806;-81
2022/04/27 01:42:19;;;;;;;;;;;23.50;51.60;;;;;;696883;28;814;-81
2022/04/27 01:42:40;;;;;;;;;;;23.50;51.50;;;;;;696936;28;917;-81
2022/04/27 01:43:01;;;;;;;;;;;23.50;51.50;;;;;;696907;28;906;-81
2022/04/27 01:43:24;;;;;;;;;;;23.50;51.50;;;;;;697038;28;798;-80
2022/04/27 01:43:44;;;;;;;;;;;23.50;51.50;;;;;;696898;28;866;-81
2022/04/27 01:44:05;;;;;;;;;;;23.50;51.50;;;;;;696892;28;853;-81
2022/04/27 01:44:26;;;;;;;;;;;23.50;51.50;;;;;;696595;28;1230;-81
2022/04/27 01:44:47;;;;;;;;;;;23.50;51.50;;;;;;696755;28;858;-82
2022/04/27 01:45:08;;;;;;;;;;;23.50;51.40;;;;;;696778;28;870;-82
2022/04/27 01:45:28;;;;;;;;;;;23.50;51.50;;;;;;696580;28;937;-81
2022/04/27 01:45:49;;;;;;;;;;;23.50;51.40;;;;;;696728;28;814;-81
2022/04/27 01:46:09;;;;;;;;;;;23.50;51.40;;;;;;696708;28;874;-81
2022/04/27 01:46:30;;;;;;;;;;;23.50;51.40;;;;;;697060;28;870;-82
2022/04/27 01:46:51;;;;;;;;;;;23.50;51.40;;;;;;696842;28;834;-81
2022/04/27 01:47:11;;;;;;;;;;;23.50;51.40;;;;;;696858;28;830;-81
2022/04/27 01:47:32;;;;;;;;;;;23.50;51.30;;;;;;693607;28;968;-82
2022/04/27 01:47:53;;;;;;;;;;;23.50;51.40;;;;;;693638;28;961;-81
2022/04/27 01:48:14;;;;;;;;;;;23.50;52.50;;;;;;693879;28;905;-82
2022/04/27 01:48:35;;;;;;;;;;;23.50;51.30;;;;;;694124;28;845;-80
2022/04/27 01:48:55;;;;;;;;;;;23.50;51.30;;;;;;693996;28;835;-81
2022/04/27 01:49:16;;;;;;;;;;;23.50;51.30;;;;;;694343;28;767;-81
2022/04/27 01:49:36;;;;;;;;;;;23.50;51.30;;;;;;696947;28;1961;-81
2022/04/27 01:49:57;;;;;;;;;;;23.50;51.30;;;;;;696707;28;890;-81
2022/04/27 01:50:17;;;;;;;;;;;23.50;51.30;;;;;;696862;28;790;-81
2022/04/27 01:50:38;;;;;;;;;;;23.50;51.30;;;;;;696970;28;803;-81
2022/04/27 01:50:59;;;;;;;;;;;23.50;51.30;;;;;;696918;28;913;-82
2022/04/27 01:54:14;;;;;;;;;;;23.50;51.40;;;;;;696984;28;810;-82
2022/04/27 01:54:16;;;;;;;;;;;23.50;51.50;;;;;;696946;28;688;-81
2022/04/27 01:54:37;;;;;;;;;;;23.50;51.60;;;;;;696883;28;984;-81
2022/04/27 01:54:57;;;;;;;;;;;23.50;51.60;;;;;;696887;28;838;-81
2022/04/27 01:55:19;;;;;;;;;;;23.50;51.50;;;;;;696275;28;1280;-81
2022/04/27 01:55:39;;;;;;;;;;;23.50;51.60;;;;;;696726;28;823;-82
2022/04/27 01:56:00;;;;;;;;;;;23.50;51.60;;;;;;696801;28;857;-81
2022/04/27 01:56:21;;;;;;;;;;;23.50;51.60;;;;;;696548;28;862;-81
2022/04/27 01:56:45;;;;;;;;;;;23.40;51.60;;;;;;696762;28;775;-81
2022/04/27 01:57:07;;;;;;;;;;;23.40;51.60;;;;;;696968;28;787;-81
2022/04/27 01:57:27;;;;;;;;;;;23.40;51.60;;;;;;696854;28;803;-81
2022/04/27 01:57:51;;;;;;;;;;;23.50;51.60;;;;;;696874;28;830;-81
2022/04/27 01:58:11;;;;;;;;;;;23.40;51.60;;;;;;696853;28;886;-82
2022/04/27 01:58:32;;;;;;;;;;;23.40;51.70;;;;;;696893;28;846;-81
2022/04/27 01:58:52;;;;;;;;;;;23.40;51.70;;;;;;696848;28;845;-81
2022/04/27 01:59:13;;;;;;;;;;;23.40;51.60;;;;;;696612;28;1204;-80
2022/04/27 01:59:34;;;;;;;;;;;23.40;51.70;;;;;;696751;28;818;-81
2022/04/27 01:59:55;;;;;;;;;;;23.40;51.70;;;;;;696649;28;1033;-81
2022/04/27 02:00:15;;;;;;;;;;;23.40;51.70;;;;;;696638;28;822;-81
2022/04/27 02:00:38;;;;;;;;;;;23.40;51.60;;;;;;696706;28;790;-81
2022/04/27 02:01:00;;;;;;;;;;;23.40;51.80;;;;;;695981;28;1192;-81
2022/04/27 02:01:21;;;;;;;;;;;23.40;51.60;;;;;;694008;28;815;-82
2022/04/27 02:01:42;;;;;;;;;;;23.40;51.70;;;;;;693977;28;897;-82
2022/04/27 02:02:02;;;;;;;;;;;23.40;51.70;;;;;;694061;28;814;-81
2022/04/27 02:02:23;;;;;;;;;;;23.40;51.60;;;;;;693845;28;956;-81
2022/04/27 02:02:44;;;;;;;;;;;23.40;51.70;;;;;;694661;28;833;-81
2022/04/27 02:03:05;;;;;;;;;;;23.40;51.70;;;;;;697018;28;869;-81
2022/04/27 02:03:26;;;;;;;;;;;23.40;51.70;;;;;;696681;28;953;-81
2022/04/27 02:03:46;;;;;;;;;;;23.40;51.70;;;;;;696872;28;782;-81
2022/04/27 02:04:07;;;;;;;;;;;23.40;51.80;;;;;;696982;28;866;-81
2022/04/27 02:04:28;;;;;;;;;;;23.40;51.70;;;;;;696767;28;878;-82
2022/04/27 02:04:48;;;;;;;;;;;23.40;51.70;;;;;;696776;28;938;-81
2022/04/27 02:05:09;;;;;;;;;;;23.40;51.80;;;;;;696823;28;863;-81
2022/04/27 02:05:29;;;;;;;;;;;23.40;51.70;;;;;;696797;28;814;-81
2022/04/27 02:05:52;;;;;;;;;;;23.40;51.80;;;;;;696799;28;857;-81
2022/04/27 02:06:16;;;;;;;;;;;23.40;51.80;;;;;;696924;28;862;-82
2022/04/27 02:06:37;;;;;;;;;;;23.40;51.80;;;;;;696894;28;868;-81
2022/04/27 02:06:58;;;;;;;;;;;23.40;51.80;;;;;;696786;28;889;-81
2022/04/27 02:07:19;;;;;;;;;;;23.40;51.80;;;;;;696917;28;821;-82
2022/04/27 02:07:39;;;;;;;;;;;23.40;51.90;;;;;;693917;28;1536;-82
2022/04/27 02:08:00;;;;;;;;;;;23.40;51.80;;;;;;694038;28;920;-81
2022/04/27 02:08:21;;;;;;;;;;;23.40;51.80;;;;;;693921;28;870;-81
2022/04/27 02:08:41;;;;;;;;;;;23.40;51.80;;;;;;693962;28;841;-81
2022/04/27 02:09:03;;;;;;;;;;;23.40;51.90;;;;;;693979;28;783;-81
2022/04/27 02:09:23;;;;;;;;;;;23.40;51.90;;;;;;694335;28;1894;-81
2022/04/27 02:09:44;;;;;;;;;;;23.40;52.00;;;;;;693873;28;876;-80
2022/04/27 02:10:06;;;;;;;;;;;23.40;51.90;;;;;;694005;28;1430;-81
2022/04/27 02:10:27;;;;;;;;;;;23.40;51.90;;;;;;691091;28;1254;-81
2022/04/27 02:10:47;;;;;;;;;;;23.40;51.80;;;;;;691093;28;1313;-80
2022/04/27 02:11:08;;;;;;;;;;;23.40;51.90;;;;;;691327;28;897;-81
2022/04/27 02:11:28;;;;;;;;;;;23.40;51.90;;;;;;688389;28;819;-82